<?xml version="1.0" encoding="UTF-8" standalone="no" ?>
<gpx xmlns="http://www.topografix.com/GPX/1/1" xmlns:xsi="http://www.w3.org/2001/XMLSchema-instance" xsi:schemaLocation="http://www.topografix.com/GPX/1/1 http://www.topografix.com/GPX/1/1/gpx.xsd" version="1.1" creator="VisuGPX - https://www.visugpx.com">
  <metadata>
    <name>Etape 2 Saint-Amand-Montrond &gt; Saint-Florent-sur-Cher</name>
    <desc><![CDATA[Etape 2 qui va de Saint-Amand-Montrond à Saint-Florent-sur-Cher
Parcours du 14 juin]]></desc>
  </metadata>
  <trk>
    <name><![CDATA[20180610195922-k1GEa]]></name>
    <trkseg>
      <trkpt lat="46.86071" lon="2.32093">
        <ele>163</ele>
        <time>2018-04-16T14:52:41Z</time>
      </trkpt>
      <trkpt lat="46.86071" lon="2.32093">
        <ele>163</ele>
        <time>2018-04-16T14:52:42Z</time>
      </trkpt>
      <trkpt lat="46.86065" lon="2.32098">
        <ele>163</ele>
        <time>2018-04-16T14:52:51Z</time>
      </trkpt>
      <trkpt lat="46.86064" lon="2.321">
        <ele>163</ele>
        <time>2018-04-16T14:52:52Z</time>
      </trkpt>
      <trkpt lat="46.8606" lon="2.32109">
        <ele>163</ele>
        <time>2018-04-16T14:52:56Z</time>
      </trkpt>
      <trkpt lat="46.86054" lon="2.32136">
        <ele>163</ele>
        <time>2018-04-16T14:53:04Z</time>
      </trkpt>
      <trkpt lat="46.86053" lon="2.32139">
        <ele>163</ele>
        <time>2018-04-16T14:53:05Z</time>
      </trkpt>
      <trkpt lat="46.86052" lon="2.32143">
        <ele>163</ele>
        <time>2018-04-16T14:53:06Z</time>
      </trkpt>
      <trkpt lat="46.86051" lon="2.32146">
        <ele>163</ele>
        <time>2018-04-16T14:53:07Z</time>
      </trkpt>
      <trkpt lat="46.86047" lon="2.32183">
        <ele>162</ele>
        <time>2018-04-16T14:53:19Z</time>
      </trkpt>
      <trkpt lat="46.8605" lon="2.32183">
        <ele>162</ele>
        <time>2018-04-16T14:53:21Z</time>
      </trkpt>
      <trkpt lat="46.8609" lon="2.32157">
        <ele>161</ele>
        <time>2018-04-16T14:53:35Z</time>
      </trkpt>
      <trkpt lat="46.861" lon="2.32152">
        <ele>162</ele>
        <time>2018-04-16T14:53:38Z</time>
      </trkpt>
      <trkpt lat="46.86111" lon="2.32148">
        <ele>162</ele>
        <time>2018-04-16T14:53:41Z</time>
      </trkpt>
      <trkpt lat="46.86115" lon="2.32147">
        <ele>162</ele>
        <time>2018-04-16T14:53:42Z</time>
      </trkpt>
      <trkpt lat="46.86118" lon="2.32146">
        <ele>162</ele>
        <time>2018-04-16T14:53:43Z</time>
      </trkpt>
      <trkpt lat="46.86175" lon="2.32139">
        <ele>162</ele>
        <time>2018-04-16T14:53:59Z</time>
      </trkpt>
      <trkpt lat="46.86198" lon="2.32146">
        <ele>162</ele>
        <time>2018-04-16T14:54:06Z</time>
      </trkpt>
      <trkpt lat="46.86207" lon="2.3215">
        <ele>162</ele>
        <time>2018-04-16T14:54:09Z</time>
      </trkpt>
      <trkpt lat="46.86235" lon="2.32164">
        <ele>163</ele>
        <time>2018-04-16T14:54:19Z</time>
      </trkpt>
      <trkpt lat="46.8625" lon="2.32162">
        <ele>163</ele>
        <time>2018-04-16T14:54:24Z</time>
      </trkpt>
      <trkpt lat="46.86252" lon="2.32159">
        <ele>163</ele>
        <time>2018-04-16T14:54:25Z</time>
      </trkpt>
      <trkpt lat="46.86253" lon="2.32151">
        <ele>163</ele>
        <time>2018-04-16T14:54:27Z</time>
      </trkpt>
      <trkpt lat="46.86249" lon="2.32122">
        <ele>162</ele>
        <time>2018-04-16T14:54:32Z</time>
      </trkpt>
      <trkpt lat="46.86241" lon="2.32043">
        <ele>163</ele>
        <time>2018-04-16T14:54:47Z</time>
      </trkpt>
      <trkpt lat="46.86256" lon="2.31977">
        <ele>163</ele>
        <time>2018-04-16T14:55:02Z</time>
      </trkpt>
      <trkpt lat="46.8631" lon="2.31967">
        <ele>163</ele>
        <time>2018-04-16T14:55:17Z</time>
      </trkpt>
      <trkpt lat="46.8633" lon="2.31973">
        <ele>162</ele>
        <time>2018-04-16T14:56:01Z</time>
      </trkpt>
      <trkpt lat="46.86331" lon="2.31975">
        <ele>162</ele>
        <time>2018-04-16T14:56:19Z</time>
      </trkpt>
      <trkpt lat="46.86332" lon="2.31975">
        <ele>162</ele>
        <time>2018-04-16T14:56:34Z</time>
      </trkpt>
      <trkpt lat="46.86336" lon="2.31976">
        <ele>161</ele>
        <time>2018-04-16T14:56:37Z</time>
      </trkpt>
      <trkpt lat="46.86349" lon="2.31976">
        <ele>162</ele>
        <time>2018-04-16T14:56:42Z</time>
      </trkpt>
      <trkpt lat="46.86361" lon="2.31978">
        <ele>162</ele>
        <time>2018-04-16T14:56:46Z</time>
      </trkpt>
      <trkpt lat="46.86367" lon="2.31978">
        <ele>162</ele>
        <time>2018-04-16T14:56:48Z</time>
      </trkpt>
      <trkpt lat="46.8637" lon="2.31979">
        <ele>162</ele>
        <time>2018-04-16T14:56:49Z</time>
      </trkpt>
      <trkpt lat="46.86373" lon="2.31979">
        <ele>162</ele>
        <time>2018-04-16T14:56:50Z</time>
      </trkpt>
      <trkpt lat="46.86383" lon="2.3198">
        <ele>162</ele>
        <time>2018-04-16T14:56:53Z</time>
      </trkpt>
      <trkpt lat="46.86395" lon="2.31982">
        <ele>162</ele>
        <time>2018-04-16T14:56:57Z</time>
      </trkpt>
      <trkpt lat="46.86405" lon="2.31985">
        <ele>162</ele>
        <time>2018-04-16T14:57:00Z</time>
      </trkpt>
      <trkpt lat="46.86409" lon="2.31986">
        <ele>162</ele>
        <time>2018-04-16T14:57:01Z</time>
      </trkpt>
      <trkpt lat="46.86417" lon="2.31988">
        <ele>162</ele>
        <time>2018-04-16T14:57:03Z</time>
      </trkpt>
      <trkpt lat="46.86468" lon="2.32">
        <ele>162</ele>
        <time>2018-04-16T14:57:16Z</time>
      </trkpt>
      <trkpt lat="46.86475" lon="2.32001">
        <ele>162</ele>
        <time>2018-04-16T14:57:18Z</time>
      </trkpt>
      <trkpt lat="46.86482" lon="2.32001">
        <ele>162</ele>
        <time>2018-04-16T14:57:20Z</time>
      </trkpt>
      <trkpt lat="46.86508" lon="2.32005">
        <ele>162</ele>
        <time>2018-04-16T14:57:27Z</time>
      </trkpt>
      <trkpt lat="46.86519" lon="2.32008">
        <ele>162</ele>
        <time>2018-04-16T14:57:30Z</time>
      </trkpt>
      <trkpt lat="46.86543" lon="2.32014">
        <ele>161</ele>
        <time>2018-04-16T14:57:36Z</time>
      </trkpt>
      <trkpt lat="46.86547" lon="2.32015">
        <ele>161</ele>
        <time>2018-04-16T14:57:37Z</time>
      </trkpt>
      <trkpt lat="46.86555" lon="2.32018">
        <ele>161</ele>
        <time>2018-04-16T14:57:39Z</time>
      </trkpt>
      <trkpt lat="46.86579" lon="2.32023">
        <ele>161</ele>
        <time>2018-04-16T14:57:45Z</time>
      </trkpt>
      <trkpt lat="46.86603" lon="2.32023">
        <ele>161</ele>
        <time>2018-04-16T14:57:51Z</time>
      </trkpt>
      <trkpt lat="46.86661" lon="2.32017">
        <ele>161</ele>
        <time>2018-04-16T14:58:06Z</time>
      </trkpt>
      <trkpt lat="46.86717" lon="2.32024">
        <ele>160</ele>
        <time>2018-04-16T14:58:17Z</time>
      </trkpt>
      <trkpt lat="46.86774" lon="2.32037">
        <ele>157</ele>
        <time>2018-04-16T14:58:28Z</time>
      </trkpt>
      <trkpt lat="46.86828" lon="2.32032">
        <ele>155</ele>
        <time>2018-04-16T14:58:39Z</time>
      </trkpt>
      <trkpt lat="46.86864" lon="2.32039">
        <ele>153</ele>
        <time>2018-04-16T14:58:46Z</time>
      </trkpt>
      <trkpt lat="46.86921" lon="2.32036">
        <ele>150</ele>
        <time>2018-04-16T14:58:57Z</time>
      </trkpt>
      <trkpt lat="46.86931" lon="2.32034">
        <ele>150</ele>
        <time>2018-04-16T14:58:59Z</time>
      </trkpt>
      <trkpt lat="46.86986" lon="2.32004">
        <ele>148</ele>
        <time>2018-04-16T14:59:09Z</time>
      </trkpt>
      <trkpt lat="46.87041" lon="2.31988">
        <ele>148</ele>
        <time>2018-04-16T14:59:18Z</time>
      </trkpt>
      <trkpt lat="46.87095" lon="2.31975">
        <ele>148</ele>
        <time>2018-04-16T14:59:30Z</time>
      </trkpt>
      <trkpt lat="46.8715" lon="2.31958">
        <ele>148</ele>
        <time>2018-04-16T14:59:43Z</time>
      </trkpt>
      <trkpt lat="46.87197" lon="2.31917">
        <ele>149</ele>
        <time>2018-04-16T14:59:56Z</time>
      </trkpt>
      <trkpt lat="46.87248" lon="2.31895">
        <ele>146</ele>
        <time>2018-04-16T15:00:13Z</time>
      </trkpt>
      <trkpt lat="46.87305" lon="2.31906">
        <ele>145</ele>
        <time>2018-04-16T15:00:28Z</time>
      </trkpt>
      <trkpt lat="46.8736" lon="2.31909">
        <ele>145</ele>
        <time>2018-04-16T15:00:40Z</time>
      </trkpt>
      <trkpt lat="46.87383" lon="2.31907">
        <ele>145</ele>
        <time>2018-04-16T15:00:45Z</time>
      </trkpt>
      <trkpt lat="46.87388" lon="2.31906">
        <ele>145</ele>
        <time>2018-04-16T15:00:46Z</time>
      </trkpt>
      <trkpt lat="46.87392" lon="2.31906">
        <ele>145</ele>
        <time>2018-04-16T15:00:47Z</time>
      </trkpt>
      <trkpt lat="46.87397" lon="2.31905">
        <ele>145</ele>
        <time>2018-04-16T15:00:48Z</time>
      </trkpt>
      <trkpt lat="46.87452" lon="2.31903">
        <ele>146</ele>
        <time>2018-04-16T15:01:01Z</time>
      </trkpt>
      <trkpt lat="46.8747" lon="2.3191">
        <ele>146</ele>
        <time>2018-04-16T15:01:07Z</time>
      </trkpt>
      <trkpt lat="46.87496" lon="2.31928">
        <ele>149</ele>
        <time>2018-04-16T15:01:15Z</time>
      </trkpt>
      <trkpt lat="46.87516" lon="2.3194">
        <ele>151</ele>
        <time>2018-04-16T15:01:21Z</time>
      </trkpt>
      <trkpt lat="46.87562" lon="2.31975">
        <ele>153</ele>
        <time>2018-04-16T15:01:42Z</time>
      </trkpt>
      <trkpt lat="46.87597" lon="2.32036">
        <ele>155</ele>
        <time>2018-04-16T15:02:12Z</time>
      </trkpt>
      <trkpt lat="46.87618" lon="2.3206">
        <ele>156</ele>
        <time>2018-04-16T15:02:27Z</time>
      </trkpt>
      <trkpt lat="46.87624" lon="2.32064">
        <ele>156</ele>
        <time>2018-04-16T15:02:30Z</time>
      </trkpt>
      <trkpt lat="46.87662" lon="2.32105">
        <ele>156</ele>
        <time>2018-04-16T15:02:50Z</time>
      </trkpt>
      <trkpt lat="46.87664" lon="2.32107">
        <ele>156</ele>
        <time>2018-04-16T15:02:51Z</time>
      </trkpt>
      <trkpt lat="46.87669" lon="2.32112">
        <ele>159</ele>
        <time>2018-04-16T15:02:53Z</time>
      </trkpt>
      <trkpt lat="46.87674" lon="2.32116">
        <ele>159</ele>
        <time>2018-04-16T15:02:55Z</time>
      </trkpt>
      <trkpt lat="46.87676" lon="2.32119">
        <ele>159</ele>
        <time>2018-04-16T15:02:56Z</time>
      </trkpt>
      <trkpt lat="46.87678" lon="2.32121">
        <ele>159</ele>
        <time>2018-04-16T15:02:57Z</time>
      </trkpt>
      <trkpt lat="46.87686" lon="2.32129">
        <ele>159</ele>
        <time>2018-04-16T15:03:01Z</time>
      </trkpt>
      <trkpt lat="46.87734" lon="2.32172">
        <ele>159</ele>
        <time>2018-04-16T15:03:23Z</time>
      </trkpt>
      <trkpt lat="46.87754" lon="2.32186">
        <ele>161</ele>
        <time>2018-04-16T15:03:33Z</time>
      </trkpt>
      <trkpt lat="46.87769" lon="2.32198">
        <ele>161</ele>
        <time>2018-04-16T15:03:41Z</time>
      </trkpt>
      <trkpt lat="46.87787" lon="2.32208">
        <ele>161</ele>
        <time>2018-04-16T15:03:50Z</time>
      </trkpt>
      <trkpt lat="46.87789" lon="2.32208">
        <ele>161</ele>
        <time>2018-04-16T15:03:51Z</time>
      </trkpt>
      <trkpt lat="46.87792" lon="2.32209">
        <ele>161</ele>
        <time>2018-04-16T15:03:55Z</time>
      </trkpt>
      <trkpt lat="46.87793" lon="2.32212">
        <ele>161</ele>
        <time>2018-04-16T15:04:03Z</time>
      </trkpt>
      <trkpt lat="46.87826" lon="2.32217">
        <ele>162</ele>
        <time>2018-04-16T15:04:27Z</time>
      </trkpt>
      <trkpt lat="46.87838" lon="2.32218">
        <ele>163</ele>
        <time>2018-04-16T15:04:33Z</time>
      </trkpt>
      <trkpt lat="46.87841" lon="2.32219">
        <ele>163</ele>
        <time>2018-04-16T15:04:34Z</time>
      </trkpt>
      <trkpt lat="46.87845" lon="2.32219">
        <ele>163</ele>
        <time>2018-04-16T15:04:36Z</time>
      </trkpt>
      <trkpt lat="46.87858" lon="2.3222">
        <ele>163</ele>
        <time>2018-04-16T15:04:43Z</time>
      </trkpt>
      <trkpt lat="46.87862" lon="2.3222">
        <ele>163</ele>
        <time>2018-04-16T15:04:45Z</time>
      </trkpt>
      <trkpt lat="46.87906" lon="2.32218">
        <ele>163</ele>
        <time>2018-04-16T15:05:03Z</time>
      </trkpt>
      <trkpt lat="46.87943" lon="2.32224">
        <ele>164</ele>
        <time>2018-04-16T15:05:19Z</time>
      </trkpt>
      <trkpt lat="46.8797" lon="2.32232">
        <ele>164</ele>
        <time>2018-04-16T15:05:29Z</time>
      </trkpt>
      <trkpt lat="46.88015" lon="2.32247">
        <ele>164</ele>
        <time>2018-04-16T15:05:45Z</time>
      </trkpt>
      <trkpt lat="46.8805" lon="2.32264">
        <ele>163</ele>
        <time>2018-04-16T15:05:58Z</time>
      </trkpt>
      <trkpt lat="46.88062" lon="2.32275">
        <ele>163</ele>
        <time>2018-04-16T15:06:03Z</time>
      </trkpt>
      <trkpt lat="46.88112" lon="2.32314">
        <ele>164</ele>
        <time>2018-04-16T15:06:21Z</time>
      </trkpt>
      <trkpt lat="46.88162" lon="2.32352">
        <ele>164</ele>
        <time>2018-04-16T15:06:40Z</time>
      </trkpt>
      <trkpt lat="46.88165" lon="2.32354">
        <ele>164</ele>
        <time>2018-04-16T15:06:41Z</time>
      </trkpt>
      <trkpt lat="46.88197" lon="2.32379">
        <ele>165</ele>
        <time>2018-04-16T15:06:53Z</time>
      </trkpt>
      <trkpt lat="46.88235" lon="2.32409">
        <ele>165</ele>
        <time>2018-04-16T15:07:08Z</time>
      </trkpt>
      <trkpt lat="46.88243" lon="2.32414">
        <ele>165</ele>
        <time>2018-04-16T15:07:13Z</time>
      </trkpt>
      <trkpt lat="46.88248" lon="2.32415">
        <ele>165</ele>
        <time>2018-04-16T15:07:33Z</time>
      </trkpt>
      <trkpt lat="46.88248" lon="2.32415">
        <ele>165</ele>
        <time>2018-04-16T15:07:43Z</time>
      </trkpt>
      <trkpt lat="46.88248" lon="2.32415">
        <ele>165</ele>
        <time>2018-04-16T15:07:47Z</time>
      </trkpt>
      <trkpt lat="46.88249" lon="2.32418">
        <ele>165</ele>
        <time>2018-04-16T15:07:53Z</time>
      </trkpt>
      <trkpt lat="46.88251" lon="2.3242">
        <ele>165</ele>
        <time>2018-04-16T15:07:55Z</time>
      </trkpt>
      <trkpt lat="46.88251" lon="2.32422">
        <ele>165</ele>
        <time>2018-04-16T15:07:56Z</time>
      </trkpt>
      <trkpt lat="46.88304" lon="2.32445">
        <ele>164</ele>
        <time>2018-04-16T15:08:13Z</time>
      </trkpt>
      <trkpt lat="46.88324" lon="2.32464">
        <ele>164</ele>
        <time>2018-04-16T15:08:19Z</time>
      </trkpt>
      <trkpt lat="46.88335" lon="2.32477">
        <ele>164</ele>
        <time>2018-04-16T15:08:23Z</time>
      </trkpt>
      <trkpt lat="46.88338" lon="2.3248">
        <ele>164</ele>
        <time>2018-04-16T15:08:24Z</time>
      </trkpt>
      <trkpt lat="46.88341" lon="2.32483">
        <ele>164</ele>
        <time>2018-04-16T15:08:25Z</time>
      </trkpt>
      <trkpt lat="46.88388" lon="2.32532">
        <ele>164</ele>
        <time>2018-04-16T15:08:40Z</time>
      </trkpt>
      <trkpt lat="46.88436" lon="2.32574">
        <ele>164</ele>
        <time>2018-04-16T15:08:54Z</time>
      </trkpt>
      <trkpt lat="46.88443" lon="2.3258">
        <ele>164</ele>
        <time>2018-04-16T15:08:56Z</time>
      </trkpt>
      <trkpt lat="46.88482" lon="2.32613">
        <ele>165</ele>
        <time>2018-04-16T15:09:07Z</time>
      </trkpt>
      <trkpt lat="46.88529" lon="2.32655">
        <ele>166</ele>
        <time>2018-04-16T15:09:20Z</time>
      </trkpt>
      <trkpt lat="46.88576" lon="2.32697">
        <ele>165</ele>
        <time>2018-04-16T15:09:32Z</time>
      </trkpt>
      <trkpt lat="46.88596" lon="2.32714">
        <ele>164</ele>
        <time>2018-04-16T15:09:37Z</time>
      </trkpt>
      <trkpt lat="46.88644" lon="2.32754">
        <ele>164</ele>
        <time>2018-04-16T15:09:48Z</time>
      </trkpt>
      <trkpt lat="46.88692" lon="2.32803">
        <ele>163</ele>
        <time>2018-04-16T15:10:00Z</time>
      </trkpt>
      <trkpt lat="46.88707" lon="2.32819">
        <ele>163</ele>
        <time>2018-04-16T15:10:04Z</time>
      </trkpt>
      <trkpt lat="46.88735" lon="2.32843">
        <ele>163</ele>
        <time>2018-04-16T15:10:11Z</time>
      </trkpt>
      <trkpt lat="46.88754" lon="2.32862">
        <ele>163</ele>
        <time>2018-04-16T15:10:16Z</time>
      </trkpt>
      <trkpt lat="46.88799" lon="2.32911">
        <ele>162</ele>
        <time>2018-04-16T15:10:27Z</time>
      </trkpt>
      <trkpt lat="46.88838" lon="2.32946">
        <ele>162</ele>
        <time>2018-04-16T15:10:36Z</time>
      </trkpt>
      <trkpt lat="46.88857" lon="2.32971">
        <ele>162</ele>
        <time>2018-04-16T15:10:43Z</time>
      </trkpt>
      <trkpt lat="46.8886" lon="2.32982">
        <ele>162</ele>
        <time>2018-04-16T15:10:45Z</time>
      </trkpt>
      <trkpt lat="46.88868" lon="2.32997">
        <ele>162</ele>
        <time>2018-04-16T15:10:48Z</time>
      </trkpt>
      <trkpt lat="46.88911" lon="2.3305">
        <ele>162</ele>
        <time>2018-04-16T15:10:59Z</time>
      </trkpt>
      <trkpt lat="46.88938" lon="2.33082">
        <ele>162</ele>
        <time>2018-04-16T15:11:06Z</time>
      </trkpt>
      <trkpt lat="46.88962" lon="2.33114">
        <ele>163</ele>
        <time>2018-04-16T15:11:14Z</time>
      </trkpt>
      <trkpt lat="46.88963" lon="2.33118">
        <ele>163</ele>
        <time>2018-04-16T15:11:15Z</time>
      </trkpt>
      <trkpt lat="46.8899" lon="2.33188">
        <ele>164</ele>
        <time>2018-04-16T15:11:36Z</time>
      </trkpt>
      <trkpt lat="46.89001" lon="2.33195">
        <ele>164</ele>
        <time>2018-04-16T15:11:41Z</time>
      </trkpt>
      <trkpt lat="46.89004" lon="2.33195">
        <ele>164</ele>
        <time>2018-04-16T15:11:42Z</time>
      </trkpt>
      <trkpt lat="46.89006" lon="2.33195">
        <ele>164</ele>
        <time>2018-04-16T15:11:43Z</time>
      </trkpt>
      <trkpt lat="46.89014" lon="2.33193">
        <ele>164</ele>
        <time>2018-04-16T15:11:46Z</time>
      </trkpt>
      <trkpt lat="46.89019" lon="2.33189">
        <ele>164</ele>
        <time>2018-04-16T15:11:48Z</time>
      </trkpt>
      <trkpt lat="46.8904" lon="2.33134">
        <ele>164</ele>
        <time>2018-04-16T15:12:05Z</time>
      </trkpt>
      <trkpt lat="46.89042" lon="2.33116">
        <ele>164</ele>
        <time>2018-04-16T15:12:10Z</time>
      </trkpt>
      <trkpt lat="46.89046" lon="2.33104">
        <ele>164</ele>
        <time>2018-04-16T15:12:13Z</time>
      </trkpt>
      <trkpt lat="46.89054" lon="2.33087">
        <ele>164</ele>
        <time>2018-04-16T15:12:20Z</time>
      </trkpt>
      <trkpt lat="46.89062" lon="2.33083">
        <ele>163</ele>
        <time>2018-04-16T15:12:25Z</time>
      </trkpt>
      <trkpt lat="46.89083" lon="2.3308">
        <ele>165</ele>
        <time>2018-04-16T15:12:34Z</time>
      </trkpt>
      <trkpt lat="46.89137" lon="2.33072">
        <ele>165</ele>
        <time>2018-04-16T15:12:55Z</time>
      </trkpt>
      <trkpt lat="46.8916" lon="2.33067">
        <ele>165</ele>
        <time>2018-04-16T15:13:06Z</time>
      </trkpt>
      <trkpt lat="46.89162" lon="2.33067">
        <ele>165</ele>
        <time>2018-04-16T15:13:07Z</time>
      </trkpt>
      <trkpt lat="46.89208" lon="2.33066">
        <ele>165</ele>
        <time>2018-04-16T15:13:23Z</time>
      </trkpt>
      <trkpt lat="46.89236" lon="2.33077">
        <ele>166</ele>
        <time>2018-04-16T15:13:34Z</time>
      </trkpt>
      <trkpt lat="46.89243" lon="2.33079">
        <ele>166</ele>
        <time>2018-04-16T15:13:37Z</time>
      </trkpt>
      <trkpt lat="46.89276" lon="2.33088">
        <ele>165</ele>
        <time>2018-04-16T15:13:47Z</time>
      </trkpt>
      <trkpt lat="46.89298" lon="2.33097">
        <ele>165</ele>
        <time>2018-04-16T15:13:55Z</time>
      </trkpt>
      <trkpt lat="46.89352" lon="2.33108">
        <ele>164</ele>
        <time>2018-04-16T15:14:14Z</time>
      </trkpt>
      <trkpt lat="46.89365" lon="2.3311">
        <ele>164</ele>
        <time>2018-04-16T15:14:18Z</time>
      </trkpt>
      <trkpt lat="46.89394" lon="2.33108">
        <ele>165</ele>
        <time>2018-04-16T15:14:25Z</time>
      </trkpt>
      <trkpt lat="46.89401" lon="2.33109">
        <ele>165</ele>
        <time>2018-04-16T15:14:27Z</time>
      </trkpt>
      <trkpt lat="46.8942" lon="2.33118">
        <ele>165</ele>
        <time>2018-04-16T15:14:32Z</time>
      </trkpt>
      <trkpt lat="46.89432" lon="2.33128">
        <ele>165</ele>
        <time>2018-04-16T15:14:36Z</time>
      </trkpt>
      <trkpt lat="46.89443" lon="2.33136">
        <ele>165</ele>
        <time>2018-04-16T15:14:40Z</time>
      </trkpt>
      <trkpt lat="46.89457" lon="2.33138">
        <ele>165</ele>
        <time>2018-04-16T15:14:45Z</time>
      </trkpt>
      <trkpt lat="46.89492" lon="2.3314">
        <ele>165</ele>
        <time>2018-04-16T15:14:56Z</time>
      </trkpt>
      <trkpt lat="46.89498" lon="2.33139">
        <ele>165</ele>
        <time>2018-04-16T15:14:58Z</time>
      </trkpt>
      <trkpt lat="46.89505" lon="2.33136">
        <ele>164</ele>
        <time>2018-04-16T15:15:00Z</time>
      </trkpt>
      <trkpt lat="46.89554" lon="2.33129">
        <ele>164</ele>
        <time>2018-04-16T15:15:14Z</time>
      </trkpt>
      <trkpt lat="46.89564" lon="2.3313">
        <ele>164</ele>
        <time>2018-04-16T15:15:17Z</time>
      </trkpt>
      <trkpt lat="46.89567" lon="2.3313">
        <ele>164</ele>
        <time>2018-04-16T15:15:18Z</time>
      </trkpt>
      <trkpt lat="46.8957" lon="2.3313">
        <ele>164</ele>
        <time>2018-04-16T15:15:19Z</time>
      </trkpt>
      <trkpt lat="46.89573" lon="2.33129">
        <ele>164</ele>
        <time>2018-04-16T15:15:20Z</time>
      </trkpt>
      <trkpt lat="46.89577" lon="2.33129">
        <ele>164</ele>
        <time>2018-04-16T15:15:21Z</time>
      </trkpt>
      <trkpt lat="46.89608" lon="2.33069">
        <ele>163</ele>
        <time>2018-04-16T15:15:41Z</time>
      </trkpt>
      <trkpt lat="46.8961" lon="2.33055">
        <ele>162</ele>
        <time>2018-04-16T15:15:44Z</time>
      </trkpt>
      <trkpt lat="46.89611" lon="2.33051">
        <ele>162</ele>
        <time>2018-04-16T15:15:45Z</time>
      </trkpt>
      <trkpt lat="46.89612" lon="2.33047">
        <ele>162</ele>
        <time>2018-04-16T15:15:46Z</time>
      </trkpt>
      <trkpt lat="46.89612" lon="2.33042">
        <ele>162</ele>
        <time>2018-04-16T15:15:47Z</time>
      </trkpt>
      <trkpt lat="46.8962" lon="2.32962">
        <ele>162</ele>
        <time>2018-04-16T15:16:03Z</time>
      </trkpt>
      <trkpt lat="46.89622" lon="2.32882">
        <ele>161</ele>
        <time>2018-04-16T15:16:18Z</time>
      </trkpt>
      <trkpt lat="46.89621" lon="2.328">
        <ele>160</ele>
        <time>2018-04-16T15:16:32Z</time>
      </trkpt>
      <trkpt lat="46.89625" lon="2.3272">
        <ele>159</ele>
        <time>2018-04-16T15:16:49Z</time>
      </trkpt>
      <trkpt lat="46.89623" lon="2.32669">
        <ele>159</ele>
        <time>2018-04-16T15:16:59Z</time>
      </trkpt>
      <trkpt lat="46.89621" lon="2.3265">
        <ele>158</ele>
        <time>2018-04-16T15:17:03Z</time>
      </trkpt>
      <trkpt lat="46.89621" lon="2.3263">
        <ele>158</ele>
        <time>2018-04-16T15:17:07Z</time>
      </trkpt>
      <trkpt lat="46.89619" lon="2.3261">
        <ele>158</ele>
        <time>2018-04-16T15:17:11Z</time>
      </trkpt>
      <trkpt lat="46.89619" lon="2.32586">
        <ele>158</ele>
        <time>2018-04-16T15:17:16Z</time>
      </trkpt>
      <trkpt lat="46.89615" lon="2.32504">
        <ele>158</ele>
        <time>2018-04-16T15:17:33Z</time>
      </trkpt>
      <trkpt lat="46.89613" lon="2.32457">
        <ele>158</ele>
        <time>2018-04-16T15:17:42Z</time>
      </trkpt>
      <trkpt lat="46.89613" lon="2.32452">
        <ele>158</ele>
        <time>2018-04-16T15:17:43Z</time>
      </trkpt>
      <trkpt lat="46.89619" lon="2.3238">
        <ele>157</ele>
        <time>2018-04-16T15:17:56Z</time>
      </trkpt>
      <trkpt lat="46.89626" lon="2.32334">
        <ele>157</ele>
        <time>2018-04-16T15:18:05Z</time>
      </trkpt>
      <trkpt lat="46.89627" lon="2.32247">
        <ele>152</ele>
        <time>2018-04-16T15:18:19Z</time>
      </trkpt>
      <trkpt lat="46.89617" lon="2.32181">
        <ele>151</ele>
        <time>2018-04-16T15:18:27Z</time>
      </trkpt>
      <trkpt lat="46.89617" lon="2.32159">
        <ele>150</ele>
        <time>2018-04-16T15:18:30Z</time>
      </trkpt>
      <trkpt lat="46.89629" lon="2.32081">
        <ele>150</ele>
        <time>2018-04-16T15:18:44Z</time>
      </trkpt>
      <trkpt lat="46.89641" lon="2.3204">
        <ele>150</ele>
        <time>2018-04-16T15:18:53Z</time>
      </trkpt>
      <trkpt lat="46.89643" lon="2.32036">
        <ele>150</ele>
        <time>2018-04-16T15:18:54Z</time>
      </trkpt>
      <trkpt lat="46.89663" lon="2.31961">
        <ele>150</ele>
        <time>2018-04-16T15:19:07Z</time>
      </trkpt>
      <trkpt lat="46.89682" lon="2.31893">
        <ele>148</ele>
        <time>2018-04-16T15:19:18Z</time>
      </trkpt>
      <trkpt lat="46.89686" lon="2.31881">
        <ele>148</ele>
        <time>2018-04-16T15:19:20Z</time>
      </trkpt>
      <trkpt lat="46.89704" lon="2.31819">
        <ele>148</ele>
        <time>2018-04-16T15:19:31Z</time>
      </trkpt>
      <trkpt lat="46.89709" lon="2.31803">
        <ele>148</ele>
        <time>2018-04-16T15:19:34Z</time>
      </trkpt>
      <trkpt lat="46.8973" lon="2.31728">
        <ele>149</ele>
        <time>2018-04-16T15:19:48Z</time>
      </trkpt>
      <trkpt lat="46.89738" lon="2.31704">
        <ele>149</ele>
        <time>2018-04-16T15:19:53Z</time>
      </trkpt>
      <trkpt lat="46.89744" lon="2.31689">
        <ele>149</ele>
        <time>2018-04-16T15:20:02Z</time>
      </trkpt>
      <trkpt lat="46.89746" lon="2.3169">
        <ele>149</ele>
        <time>2018-04-16T15:20:03Z</time>
      </trkpt>
      <trkpt lat="46.89748" lon="2.31694">
        <ele>149</ele>
        <time>2018-04-16T15:20:05Z</time>
      </trkpt>
      <trkpt lat="46.89762" lon="2.3173">
        <ele>149</ele>
        <time>2018-04-16T15:20:14Z</time>
      </trkpt>
      <trkpt lat="46.8977" lon="2.31748">
        <ele>149</ele>
        <time>2018-04-16T15:20:19Z</time>
      </trkpt>
      <trkpt lat="46.89773" lon="2.31756">
        <ele>149</ele>
        <time>2018-04-16T15:20:21Z</time>
      </trkpt>
      <trkpt lat="46.89776" lon="2.31764">
        <ele>149</ele>
        <time>2018-04-16T15:20:23Z</time>
      </trkpt>
      <trkpt lat="46.89792" lon="2.31806">
        <ele>149</ele>
        <time>2018-04-16T15:20:32Z</time>
      </trkpt>
      <trkpt lat="46.89801" lon="2.31829">
        <ele>148</ele>
        <time>2018-04-16T15:20:37Z</time>
      </trkpt>
      <trkpt lat="46.8981" lon="2.31855">
        <ele>148</ele>
        <time>2018-04-16T15:20:42Z</time>
      </trkpt>
      <trkpt lat="46.89829" lon="2.31903">
        <ele>147</ele>
        <time>2018-04-16T15:20:51Z</time>
      </trkpt>
      <trkpt lat="46.89859" lon="2.31959">
        <ele>148</ele>
        <time>2018-04-16T15:21:05Z</time>
      </trkpt>
      <trkpt lat="46.89871" lon="2.31978">
        <ele>148</ele>
        <time>2018-04-16T15:21:11Z</time>
      </trkpt>
      <trkpt lat="46.89873" lon="2.31981">
        <ele>148</ele>
        <time>2018-04-16T15:21:12Z</time>
      </trkpt>
      <trkpt lat="46.89876" lon="2.31984">
        <ele>148</ele>
        <time>2018-04-16T15:21:13Z</time>
      </trkpt>
      <trkpt lat="46.8988" lon="2.3199">
        <ele>148</ele>
        <time>2018-04-16T15:21:15Z</time>
      </trkpt>
      <trkpt lat="46.89897" lon="2.32011">
        <ele>149</ele>
        <time>2018-04-16T15:21:22Z</time>
      </trkpt>
      <trkpt lat="46.8992" lon="2.32037">
        <ele>150</ele>
        <time>2018-04-16T15:21:31Z</time>
      </trkpt>
      <trkpt lat="46.89925" lon="2.32044">
        <ele>150</ele>
        <time>2018-04-16T15:21:33Z</time>
      </trkpt>
      <trkpt lat="46.89929" lon="2.32049">
        <ele>150</ele>
        <time>2018-04-16T15:21:35Z</time>
      </trkpt>
      <trkpt lat="46.89969" lon="2.32109">
        <ele>153</ele>
        <time>2018-04-16T15:21:54Z</time>
      </trkpt>
      <trkpt lat="46.89973" lon="2.32115">
        <ele>153</ele>
        <time>2018-04-16T15:21:56Z</time>
      </trkpt>
      <trkpt lat="46.89982" lon="2.32132">
        <ele>153</ele>
        <time>2018-04-16T15:22:01Z</time>
      </trkpt>
      <trkpt lat="46.90006" lon="2.3218">
        <ele>154</ele>
        <time>2018-04-16T15:22:20Z</time>
      </trkpt>
      <trkpt lat="46.90008" lon="2.32183">
        <ele>154</ele>
        <time>2018-04-16T15:22:22Z</time>
      </trkpt>
      <trkpt lat="46.90011" lon="2.3219">
        <ele>154</ele>
        <time>2018-04-16T15:22:26Z</time>
      </trkpt>
      <trkpt lat="46.90014" lon="2.32196">
        <ele>154</ele>
        <time>2018-04-16T15:22:30Z</time>
      </trkpt>
      <trkpt lat="46.90015" lon="2.32197">
        <ele>154</ele>
        <time>2018-04-16T15:22:31Z</time>
      </trkpt>
      <trkpt lat="46.90014" lon="2.32198">
        <ele>154</ele>
        <time>2018-04-16T15:22:47Z</time>
      </trkpt>
      <trkpt lat="46.90014" lon="2.32199">
        <ele>154</ele>
        <time>2018-04-16T15:22:56Z</time>
      </trkpt>
      <trkpt lat="46.90013" lon="2.32199">
        <ele>154</ele>
        <time>2018-04-16T15:23:02Z</time>
      </trkpt>
      <trkpt lat="46.90014" lon="2.32197">
        <ele>154</ele>
        <time>2018-04-16T15:23:10Z</time>
      </trkpt>
      <trkpt lat="46.90013" lon="2.32197">
        <ele>154</ele>
        <time>2018-04-16T15:23:16Z</time>
      </trkpt>
      <trkpt lat="46.90014" lon="2.32197">
        <ele>154</ele>
        <time>2018-04-16T15:23:22Z</time>
      </trkpt>
      <trkpt lat="46.90013" lon="2.32197">
        <ele>154</ele>
        <time>2018-04-16T15:23:23Z</time>
      </trkpt>
      <trkpt lat="46.90013" lon="2.32197">
        <ele>154</ele>
        <time>2018-04-16T15:23:24Z</time>
      </trkpt>
      <trkpt lat="46.90013" lon="2.32196">
        <ele>154</ele>
        <time>2018-04-16T15:23:25Z</time>
      </trkpt>
      <trkpt lat="46.90013" lon="2.32196">
        <ele>154</ele>
        <time>2018-04-16T15:23:26Z</time>
      </trkpt>
      <trkpt lat="46.90012" lon="2.32192">
        <ele>154</ele>
        <time>2018-04-16T15:23:29Z</time>
      </trkpt>
      <trkpt lat="46.90008" lon="2.32184">
        <ele>154</ele>
        <time>2018-04-16T15:23:33Z</time>
      </trkpt>
      <trkpt lat="46.90001" lon="2.32169">
        <ele>154</ele>
        <time>2018-04-16T15:23:39Z</time>
      </trkpt>
      <trkpt lat="46.89996" lon="2.32159">
        <ele>154</ele>
        <time>2018-04-16T15:23:42Z</time>
      </trkpt>
      <trkpt lat="46.89981" lon="2.32133">
        <ele>153</ele>
        <time>2018-04-16T15:23:50Z</time>
      </trkpt>
      <trkpt lat="46.8998" lon="2.32129">
        <ele>153</ele>
        <time>2018-04-16T15:23:51Z</time>
      </trkpt>
      <trkpt lat="46.89978" lon="2.32126">
        <ele>153</ele>
        <time>2018-04-16T15:23:52Z</time>
      </trkpt>
      <trkpt lat="46.89976" lon="2.32122">
        <ele>153</ele>
        <time>2018-04-16T15:23:53Z</time>
      </trkpt>
      <trkpt lat="46.89971" lon="2.32114">
        <ele>153</ele>
        <time>2018-04-16T15:23:55Z</time>
      </trkpt>
      <trkpt lat="46.89935" lon="2.32059">
        <ele>150</ele>
        <time>2018-04-16T15:24:08Z</time>
      </trkpt>
      <trkpt lat="46.89929" lon="2.3205">
        <ele>150</ele>
        <time>2018-04-16T15:24:10Z</time>
      </trkpt>
      <trkpt lat="46.89922" lon="2.3204">
        <ele>150</ele>
        <time>2018-04-16T15:24:12Z</time>
      </trkpt>
      <trkpt lat="46.89901" lon="2.32016">
        <ele>149</ele>
        <time>2018-04-16T15:24:17Z</time>
      </trkpt>
      <trkpt lat="46.89858" lon="2.31959">
        <ele>148</ele>
        <time>2018-04-16T15:24:30Z</time>
      </trkpt>
      <trkpt lat="46.89845" lon="2.31938">
        <ele>147</ele>
        <time>2018-04-16T15:24:34Z</time>
      </trkpt>
      <trkpt lat="46.89833" lon="2.31917">
        <ele>147</ele>
        <time>2018-04-16T15:24:38Z</time>
      </trkpt>
      <trkpt lat="46.89828" lon="2.31906">
        <ele>147</ele>
        <time>2018-04-16T15:24:40Z</time>
      </trkpt>
      <trkpt lat="46.89804" lon="2.31845">
        <ele>148</ele>
        <time>2018-04-16T15:24:51Z</time>
      </trkpt>
      <trkpt lat="46.89796" lon="2.31824">
        <ele>149</ele>
        <time>2018-04-16T15:24:55Z</time>
      </trkpt>
      <trkpt lat="46.89794" lon="2.31819">
        <ele>149</ele>
        <time>2018-04-16T15:24:56Z</time>
      </trkpt>
      <trkpt lat="46.8979" lon="2.31809">
        <ele>149</ele>
        <time>2018-04-16T15:24:58Z</time>
      </trkpt>
      <trkpt lat="46.89773" lon="2.31764">
        <ele>149</ele>
        <time>2018-04-16T15:25:07Z</time>
      </trkpt>
      <trkpt lat="46.89756" lon="2.31723">
        <ele>149</ele>
        <time>2018-04-16T15:25:16Z</time>
      </trkpt>
      <trkpt lat="46.89745" lon="2.317">
        <ele>149</ele>
        <time>2018-04-16T15:25:22Z</time>
      </trkpt>
      <trkpt lat="46.89743" lon="2.31695">
        <ele>149</ele>
        <time>2018-04-16T15:25:25Z</time>
      </trkpt>
      <trkpt lat="46.89743" lon="2.31693">
        <ele>149</ele>
        <time>2018-04-16T15:25:30Z</time>
      </trkpt>
      <trkpt lat="46.89743" lon="2.31694">
        <ele>149</ele>
        <time>2018-04-16T15:25:32Z</time>
      </trkpt>
      <trkpt lat="46.89743" lon="2.31693">
        <ele>149</ele>
        <time>2018-04-16T15:25:41Z</time>
      </trkpt>
      <trkpt lat="46.89744" lon="2.31692">
        <ele>149</ele>
        <time>2018-04-16T15:25:48Z</time>
      </trkpt>
      <trkpt lat="46.89744" lon="2.31692">
        <ele>149</ele>
        <time>2018-04-16T15:25:51Z</time>
      </trkpt>
      <trkpt lat="46.89745" lon="2.31693">
        <ele>149</ele>
        <time>2018-04-16T15:26:06Z</time>
      </trkpt>
      <trkpt lat="46.89745" lon="2.31693">
        <ele>149</ele>
        <time>2018-04-16T15:26:10Z</time>
      </trkpt>
      <trkpt lat="46.89745" lon="2.31693">
        <ele>149</ele>
        <time>2018-04-16T15:26:11Z</time>
      </trkpt>
      <trkpt lat="46.89745" lon="2.31693">
        <ele>149</ele>
        <time>2018-04-16T15:26:13Z</time>
      </trkpt>
      <trkpt lat="46.89745" lon="2.31693">
        <ele>149</ele>
        <time>2018-04-16T15:26:15Z</time>
      </trkpt>
      <trkpt lat="46.89744" lon="2.31693">
        <ele>149</ele>
        <time>2018-04-16T15:26:18Z</time>
      </trkpt>
      <trkpt lat="46.89746" lon="2.31693">
        <ele>149</ele>
        <time>2018-04-16T15:26:39Z</time>
      </trkpt>
      <trkpt lat="46.8975" lon="2.31692">
        <ele>150</ele>
        <time>2018-04-16T15:26:56Z</time>
      </trkpt>
      <trkpt lat="46.89802" lon="2.31673">
        <ele>150</ele>
        <time>2018-04-16T15:27:14Z</time>
      </trkpt>
      <trkpt lat="46.8981" lon="2.3167">
        <ele>150</ele>
        <time>2018-04-16T15:27:16Z</time>
      </trkpt>
      <trkpt lat="46.89816" lon="2.31668">
        <ele>151</ele>
        <time>2018-04-16T15:27:18Z</time>
      </trkpt>
      <trkpt lat="46.89823" lon="2.31665">
        <ele>151</ele>
        <time>2018-04-16T15:27:20Z</time>
      </trkpt>
      <trkpt lat="46.8983" lon="2.31663">
        <ele>151</ele>
        <time>2018-04-16T15:27:22Z</time>
      </trkpt>
      <trkpt lat="46.89858" lon="2.31653">
        <ele>151</ele>
        <time>2018-04-16T15:27:30Z</time>
      </trkpt>
      <trkpt lat="46.89876" lon="2.31647">
        <ele>151</ele>
        <time>2018-04-16T15:27:35Z</time>
      </trkpt>
      <trkpt lat="46.89902" lon="2.31639">
        <ele>151</ele>
        <time>2018-04-16T15:27:43Z</time>
      </trkpt>
      <trkpt lat="46.89939" lon="2.31618">
        <ele>151</ele>
        <time>2018-04-16T15:27:57Z</time>
      </trkpt>
      <trkpt lat="46.89935" lon="2.31579">
        <ele>152</ele>
        <time>2018-04-16T15:28:06Z</time>
      </trkpt>
      <trkpt lat="46.89941" lon="2.31566">
        <ele>152</ele>
        <time>2018-04-16T15:28:10Z</time>
      </trkpt>
      <trkpt lat="46.89997" lon="2.31548">
        <ele>152</ele>
        <time>2018-04-16T15:28:28Z</time>
      </trkpt>
      <trkpt lat="46.90051" lon="2.3153">
        <ele>152</ele>
        <time>2018-04-16T15:28:45Z</time>
      </trkpt>
      <trkpt lat="46.90105" lon="2.31511">
        <ele>152</ele>
        <time>2018-04-16T15:29:03Z</time>
      </trkpt>
      <trkpt lat="46.9016" lon="2.31493">
        <ele>153</ele>
        <time>2018-04-16T15:29:21Z</time>
      </trkpt>
      <trkpt lat="46.90213" lon="2.31475">
        <ele>152</ele>
        <time>2018-04-16T15:29:37Z</time>
      </trkpt>
      <trkpt lat="46.90255" lon="2.31458">
        <ele>150</ele>
        <time>2018-04-16T15:29:55Z</time>
      </trkpt>
      <trkpt lat="46.90255" lon="2.31457">
        <ele>150</ele>
        <time>2018-04-16T15:29:58Z</time>
      </trkpt>
      <trkpt lat="46.90255" lon="2.31457">
        <ele>150</ele>
        <time>2018-04-16T15:30:04Z</time>
      </trkpt>
      <trkpt lat="46.90255" lon="2.31457">
        <ele>150</ele>
        <time>2018-04-16T15:30:05Z</time>
      </trkpt>
      <trkpt lat="46.90255" lon="2.31457">
        <ele>150</ele>
        <time>2018-04-16T15:30:06Z</time>
      </trkpt>
      <trkpt lat="46.90254" lon="2.31457">
        <ele>150</ele>
        <time>2018-04-16T15:30:14Z</time>
      </trkpt>
      <trkpt lat="46.90255" lon="2.31457">
        <ele>150</ele>
        <time>2018-04-16T15:30:18Z</time>
      </trkpt>
      <trkpt lat="46.90255" lon="2.31457">
        <ele>150</ele>
        <time>2018-04-16T15:30:19Z</time>
      </trkpt>
      <trkpt lat="46.90255" lon="2.31457">
        <ele>150</ele>
        <time>2018-04-16T15:30:21Z</time>
      </trkpt>
      <trkpt lat="46.90255" lon="2.31457">
        <ele>150</ele>
        <time>2018-04-16T15:30:27Z</time>
      </trkpt>
      <trkpt lat="46.90254" lon="2.31457">
        <ele>150</ele>
        <time>2018-04-16T15:30:28Z</time>
      </trkpt>
      <trkpt lat="46.90256" lon="2.3146">
        <ele>150</ele>
        <time>2018-04-16T15:30:45Z</time>
      </trkpt>
      <trkpt lat="46.90273" lon="2.31537">
        <ele>149</ele>
        <time>2018-04-16T15:31:02Z</time>
      </trkpt>
      <trkpt lat="46.9029" lon="2.31618">
        <ele>148</ele>
        <time>2018-04-16T15:31:13Z</time>
      </trkpt>
      <trkpt lat="46.90304" lon="2.3168">
        <ele>148</ele>
        <time>2018-04-16T15:31:19Z</time>
      </trkpt>
      <trkpt lat="46.90318" lon="2.31722">
        <ele>149</ele>
        <time>2018-04-16T15:31:23Z</time>
      </trkpt>
      <trkpt lat="46.90322" lon="2.31732">
        <ele>149</ele>
        <time>2018-04-16T15:31:24Z</time>
      </trkpt>
      <trkpt lat="46.90327" lon="2.3174">
        <ele>149</ele>
        <time>2018-04-16T15:31:25Z</time>
      </trkpt>
      <trkpt lat="46.90332" lon="2.31749">
        <ele>150</ele>
        <time>2018-04-16T15:31:26Z</time>
      </trkpt>
      <trkpt lat="46.90336" lon="2.31757">
        <ele>151</ele>
        <time>2018-04-16T15:31:27Z</time>
      </trkpt>
      <trkpt lat="46.90377" lon="2.31819">
        <ele>153</ele>
        <time>2018-04-16T15:31:37Z</time>
      </trkpt>
      <trkpt lat="46.90403" lon="2.31861">
        <ele>154</ele>
        <time>2018-04-16T15:31:45Z</time>
      </trkpt>
      <trkpt lat="46.90406" lon="2.31866">
        <ele>154</ele>
        <time>2018-04-16T15:31:46Z</time>
      </trkpt>
      <trkpt lat="46.90409" lon="2.31871">
        <ele>154</ele>
        <time>2018-04-16T15:31:47Z</time>
      </trkpt>
      <trkpt lat="46.90413" lon="2.31876">
        <ele>154</ele>
        <time>2018-04-16T15:31:48Z</time>
      </trkpt>
      <trkpt lat="46.90422" lon="2.31891">
        <ele>155</ele>
        <time>2018-04-16T15:31:51Z</time>
      </trkpt>
      <trkpt lat="46.90439" lon="2.31915">
        <ele>155</ele>
        <time>2018-04-16T15:31:56Z</time>
      </trkpt>
      <trkpt lat="46.9045" lon="2.31933">
        <ele>154</ele>
        <time>2018-04-16T15:32:00Z</time>
      </trkpt>
      <trkpt lat="46.90462" lon="2.31952">
        <ele>155</ele>
        <time>2018-04-16T15:32:04Z</time>
      </trkpt>
      <trkpt lat="46.90495" lon="2.32017">
        <ele>154</ele>
        <time>2018-04-16T15:32:17Z</time>
      </trkpt>
      <trkpt lat="46.90501" lon="2.32032">
        <ele>156</ele>
        <time>2018-04-16T15:32:20Z</time>
      </trkpt>
      <trkpt lat="46.90515" lon="2.32076">
        <ele>155</ele>
        <time>2018-04-16T15:32:28Z</time>
      </trkpt>
      <trkpt lat="46.90541" lon="2.32149">
        <ele>156</ele>
        <time>2018-04-16T15:32:41Z</time>
      </trkpt>
      <trkpt lat="46.90554" lon="2.32182">
        <ele>156</ele>
        <time>2018-04-16T15:32:47Z</time>
      </trkpt>
      <trkpt lat="46.90576" lon="2.32241">
        <ele>156</ele>
        <time>2018-04-16T15:32:58Z</time>
      </trkpt>
      <trkpt lat="46.90585" lon="2.32263">
        <ele>157</ele>
        <time>2018-04-16T15:33:02Z</time>
      </trkpt>
      <trkpt lat="46.90608" lon="2.32323">
        <ele>157</ele>
        <time>2018-04-16T15:33:13Z</time>
      </trkpt>
      <trkpt lat="46.90618" lon="2.32348">
        <ele>157</ele>
        <time>2018-04-16T15:33:18Z</time>
      </trkpt>
      <trkpt lat="46.90639" lon="2.324">
        <ele>157</ele>
        <time>2018-04-16T15:33:28Z</time>
      </trkpt>
      <trkpt lat="46.9065" lon="2.32424">
        <ele>157</ele>
        <time>2018-04-16T15:33:48Z</time>
      </trkpt>
      <trkpt lat="46.9065" lon="2.32421">
        <ele>157</ele>
        <time>2018-04-16T15:33:54Z</time>
      </trkpt>
      <trkpt lat="46.90651" lon="2.3242">
        <ele>157</ele>
        <time>2018-04-16T15:34:04Z</time>
      </trkpt>
      <trkpt lat="46.90648" lon="2.32416">
        <ele>158</ele>
        <time>2018-04-16T15:34:07Z</time>
      </trkpt>
      <trkpt lat="46.90645" lon="2.32406">
        <ele>157</ele>
        <time>2018-04-16T15:34:15Z</time>
      </trkpt>
      <trkpt lat="46.90654" lon="2.32417">
        <ele>157</ele>
        <time>2018-04-16T15:34:42Z</time>
      </trkpt>
      <trkpt lat="46.90655" lon="2.32416">
        <ele>158</ele>
        <time>2018-04-16T15:34:43Z</time>
      </trkpt>
      <trkpt lat="46.90702" lon="2.32377">
        <ele>160</ele>
        <time>2018-04-16T15:35:01Z</time>
      </trkpt>
      <trkpt lat="46.90725" lon="2.32357">
        <ele>161</ele>
        <time>2018-04-16T15:35:15Z</time>
      </trkpt>
      <trkpt lat="46.90735" lon="2.32347">
        <ele>161</ele>
        <time>2018-04-16T15:35:20Z</time>
      </trkpt>
      <trkpt lat="46.90739" lon="2.32342">
        <ele>161</ele>
        <time>2018-04-16T15:35:22Z</time>
      </trkpt>
      <trkpt lat="46.9074" lon="2.32341">
        <ele>161</ele>
        <time>2018-04-16T15:35:23Z</time>
      </trkpt>
      <trkpt lat="46.90787" lon="2.32301">
        <ele>163</ele>
        <time>2018-04-16T15:35:42Z</time>
      </trkpt>
      <trkpt lat="46.90792" lon="2.32297">
        <ele>163</ele>
        <time>2018-04-16T15:35:44Z</time>
      </trkpt>
      <trkpt lat="46.90808" lon="2.32285">
        <ele>163</ele>
        <time>2018-04-16T15:35:51Z</time>
      </trkpt>
      <trkpt lat="46.90819" lon="2.32272">
        <ele>163</ele>
        <time>2018-04-16T15:35:56Z</time>
      </trkpt>
      <trkpt lat="46.90837" lon="2.32256">
        <ele>163</ele>
        <time>2018-04-16T15:36:04Z</time>
      </trkpt>
      <trkpt lat="46.90882" lon="2.32211">
        <ele>164</ele>
        <time>2018-04-16T15:36:23Z</time>
      </trkpt>
      <trkpt lat="46.90919" lon="2.3218">
        <ele>164</ele>
        <time>2018-04-16T15:36:34Z</time>
      </trkpt>
      <trkpt lat="46.9094" lon="2.32164">
        <ele>164</ele>
        <time>2018-04-16T15:36:41Z</time>
      </trkpt>
      <trkpt lat="46.90946" lon="2.32159">
        <ele>164</ele>
        <time>2018-04-16T15:36:43Z</time>
      </trkpt>
      <trkpt lat="46.90993" lon="2.32115">
        <ele>164</ele>
        <time>2018-04-16T15:36:58Z</time>
      </trkpt>
      <trkpt lat="46.91" lon="2.32109">
        <ele>163</ele>
        <time>2018-04-16T15:37:00Z</time>
      </trkpt>
      <trkpt lat="46.91016" lon="2.32097">
        <ele>162</ele>
        <time>2018-04-16T15:37:05Z</time>
      </trkpt>
      <trkpt lat="46.91041" lon="2.32076">
        <ele>162</ele>
        <time>2018-04-16T15:37:12Z</time>
      </trkpt>
      <trkpt lat="46.91077" lon="2.32044">
        <ele>161</ele>
        <time>2018-04-16T15:37:22Z</time>
      </trkpt>
      <trkpt lat="46.91103" lon="2.32021">
        <ele>160</ele>
        <time>2018-04-16T15:37:29Z</time>
      </trkpt>
      <trkpt lat="46.91107" lon="2.32017">
        <ele>160</ele>
        <time>2018-04-16T15:37:30Z</time>
      </trkpt>
      <trkpt lat="46.9112" lon="2.32006">
        <ele>160</ele>
        <time>2018-04-16T15:37:33Z</time>
      </trkpt>
      <trkpt lat="46.91167" lon="2.31964">
        <ele>161</ele>
        <time>2018-04-16T15:37:46Z</time>
      </trkpt>
      <trkpt lat="46.91178" lon="2.31955">
        <ele>161</ele>
        <time>2018-04-16T15:37:49Z</time>
      </trkpt>
      <trkpt lat="46.91188" lon="2.31946">
        <ele>161</ele>
        <time>2018-04-16T15:37:52Z</time>
      </trkpt>
      <trkpt lat="46.91198" lon="2.31936">
        <ele>161</ele>
        <time>2018-04-16T15:37:55Z</time>
      </trkpt>
      <trkpt lat="46.91205" lon="2.3193">
        <ele>161</ele>
        <time>2018-04-16T15:37:57Z</time>
      </trkpt>
      <trkpt lat="46.91234" lon="2.31905">
        <ele>162</ele>
        <time>2018-04-16T15:38:05Z</time>
      </trkpt>
      <trkpt lat="46.91283" lon="2.31864">
        <ele>159</ele>
        <time>2018-04-16T15:38:18Z</time>
      </trkpt>
      <trkpt lat="46.91305" lon="2.31843">
        <ele>158</ele>
        <time>2018-04-16T15:38:24Z</time>
      </trkpt>
      <trkpt lat="46.91325" lon="2.31823">
        <ele>159</ele>
        <time>2018-04-16T15:38:30Z</time>
      </trkpt>
      <trkpt lat="46.9136" lon="2.31792">
        <ele>156</ele>
        <time>2018-04-16T15:38:40Z</time>
      </trkpt>
      <trkpt lat="46.91389" lon="2.31769">
        <ele>156</ele>
        <time>2018-04-16T15:38:55Z</time>
      </trkpt>
      <trkpt lat="46.91398" lon="2.31761">
        <ele>155</ele>
        <time>2018-04-16T15:39:02Z</time>
      </trkpt>
      <trkpt lat="46.91398" lon="2.31761">
        <ele>155</ele>
        <time>2018-04-16T15:39:05Z</time>
      </trkpt>
      <trkpt lat="46.91402" lon="2.31757">
        <ele>155</ele>
        <time>2018-04-16T15:39:18Z</time>
      </trkpt>
      <trkpt lat="46.91403" lon="2.31759">
        <ele>155</ele>
        <time>2018-04-16T15:39:36Z</time>
      </trkpt>
      <trkpt lat="46.91404" lon="2.3176">
        <ele>155</ele>
        <time>2018-04-16T15:39:45Z</time>
      </trkpt>
      <trkpt lat="46.91402" lon="2.3176">
        <ele>155</ele>
        <time>2018-04-16T15:39:54Z</time>
      </trkpt>
      <trkpt lat="46.91398" lon="2.31759">
        <ele>155</ele>
        <time>2018-04-16T15:40:23Z</time>
      </trkpt>
      <trkpt lat="46.91398" lon="2.31758">
        <ele>155</ele>
        <time>2018-04-16T15:40:24Z</time>
      </trkpt>
      <trkpt lat="46.91399" lon="2.31757">
        <ele>155</ele>
        <time>2018-04-16T15:40:36Z</time>
      </trkpt>
      <trkpt lat="46.91405" lon="2.3175">
        <ele>155</ele>
        <time>2018-04-16T15:40:59Z</time>
      </trkpt>
      <trkpt lat="46.91406" lon="2.3175">
        <ele>155</ele>
        <time>2018-04-16T15:41:01Z</time>
      </trkpt>
      <trkpt lat="46.91407" lon="2.31749">
        <ele>155</ele>
        <time>2018-04-16T15:41:02Z</time>
      </trkpt>
      <trkpt lat="46.91408" lon="2.31748">
        <ele>155</ele>
        <time>2018-04-16T15:41:03Z</time>
      </trkpt>
      <trkpt lat="46.9141" lon="2.31745">
        <ele>155</ele>
        <time>2018-04-16T15:41:05Z</time>
      </trkpt>
      <trkpt lat="46.91449" lon="2.31716">
        <ele>152</ele>
        <time>2018-04-16T15:41:21Z</time>
      </trkpt>
      <trkpt lat="46.91457" lon="2.31714">
        <ele>151</ele>
        <time>2018-04-16T15:41:24Z</time>
      </trkpt>
      <trkpt lat="46.91491" lon="2.31711">
        <ele>150</ele>
        <time>2018-04-16T15:41:36Z</time>
      </trkpt>
      <trkpt lat="46.91511" lon="2.31712">
        <ele>148</ele>
        <time>2018-04-16T15:41:43Z</time>
      </trkpt>
      <trkpt lat="46.91521" lon="2.31711">
        <ele>148</ele>
        <time>2018-04-16T15:41:47Z</time>
      </trkpt>
      <trkpt lat="46.91534" lon="2.31711">
        <ele>148</ele>
        <time>2018-04-16T15:41:51Z</time>
      </trkpt>
      <trkpt lat="46.91551" lon="2.31712">
        <ele>148</ele>
        <time>2018-04-16T15:41:56Z</time>
      </trkpt>
      <trkpt lat="46.91561" lon="2.31712">
        <ele>148</ele>
        <time>2018-04-16T15:41:59Z</time>
      </trkpt>
      <trkpt lat="46.91578" lon="2.31712">
        <ele>148</ele>
        <time>2018-04-16T15:42:06Z</time>
      </trkpt>
      <trkpt lat="46.91629" lon="2.31687">
        <ele>148</ele>
        <time>2018-04-16T15:42:25Z</time>
      </trkpt>
      <trkpt lat="46.91645" lon="2.31682">
        <ele>148</ele>
        <time>2018-04-16T15:42:30Z</time>
      </trkpt>
      <trkpt lat="46.91668" lon="2.31672">
        <ele>149</ele>
        <time>2018-04-16T15:42:59Z</time>
      </trkpt>
      <trkpt lat="46.91666" lon="2.3167">
        <ele>148</ele>
        <time>2018-04-16T15:43:22Z</time>
      </trkpt>
      <trkpt lat="46.91678" lon="2.31654">
        <ele>151</ele>
        <time>2018-04-16T15:43:35Z</time>
      </trkpt>
      <trkpt lat="46.91651" lon="2.31591">
        <ele>147</ele>
        <time>2018-04-16T15:43:49Z</time>
      </trkpt>
      <trkpt lat="46.9164" lon="2.31559">
        <ele>147</ele>
        <time>2018-04-16T15:43:57Z</time>
      </trkpt>
      <trkpt lat="46.91629" lon="2.31526">
        <ele>147</ele>
        <time>2018-04-16T15:44:05Z</time>
      </trkpt>
      <trkpt lat="46.91618" lon="2.31502">
        <ele>146</ele>
        <time>2018-04-16T15:44:11Z</time>
      </trkpt>
      <trkpt lat="46.91609" lon="2.31477">
        <ele>146</ele>
        <time>2018-04-16T15:44:17Z</time>
      </trkpt>
      <trkpt lat="46.91607" lon="2.31449">
        <ele>146</ele>
        <time>2018-04-16T15:44:23Z</time>
      </trkpt>
      <trkpt lat="46.91614" lon="2.31404">
        <ele>145</ele>
        <time>2018-04-16T15:44:34Z</time>
      </trkpt>
      <trkpt lat="46.91642" lon="2.31333">
        <ele>145</ele>
        <time>2018-04-16T15:44:52Z</time>
      </trkpt>
      <trkpt lat="46.91675" lon="2.31294">
        <ele>149</ele>
        <time>2018-04-16T15:45:07Z</time>
      </trkpt>
      <trkpt lat="46.91684" lon="2.31289">
        <ele>149</ele>
        <time>2018-04-16T15:45:10Z</time>
      </trkpt>
      <trkpt lat="46.91719" lon="2.31272">
        <ele>151</ele>
        <time>2018-04-16T15:45:24Z</time>
      </trkpt>
      <trkpt lat="46.91735" lon="2.31256">
        <ele>151</ele>
        <time>2018-04-16T15:45:31Z</time>
      </trkpt>
      <trkpt lat="46.91743" lon="2.31244">
        <ele>152</ele>
        <time>2018-04-16T15:45:35Z</time>
      </trkpt>
      <trkpt lat="46.91753" lon="2.31225">
        <ele>154</ele>
        <time>2018-04-16T15:45:40Z</time>
      </trkpt>
      <trkpt lat="46.9179" lon="2.31163">
        <ele>155</ele>
        <time>2018-04-16T15:45:58Z</time>
      </trkpt>
      <trkpt lat="46.91843" lon="2.31149">
        <ele>154</ele>
        <time>2018-04-16T15:46:15Z</time>
      </trkpt>
      <trkpt lat="46.91899" lon="2.31145">
        <ele>154</ele>
        <time>2018-04-16T15:46:34Z</time>
      </trkpt>
      <trkpt lat="46.91922" lon="2.31131">
        <ele>153</ele>
        <time>2018-04-16T15:46:42Z</time>
      </trkpt>
      <trkpt lat="46.91929" lon="2.31126">
        <ele>153</ele>
        <time>2018-04-16T15:46:45Z</time>
      </trkpt>
      <trkpt lat="46.9195" lon="2.31116">
        <ele>153</ele>
        <time>2018-04-16T15:46:55Z</time>
      </trkpt>
      <trkpt lat="46.91953" lon="2.31116">
        <ele>153</ele>
        <time>2018-04-16T15:46:57Z</time>
      </trkpt>
      <trkpt lat="46.91966" lon="2.31117">
        <ele>153</ele>
        <time>2018-04-16T15:47:03Z</time>
      </trkpt>
      <trkpt lat="46.91974" lon="2.31117">
        <ele>153</ele>
        <time>2018-04-16T15:47:06Z</time>
      </trkpt>
      <trkpt lat="46.92015" lon="2.31118">
        <ele>153</ele>
        <time>2018-04-16T15:47:20Z</time>
      </trkpt>
      <trkpt lat="46.92022" lon="2.31118">
        <ele>153</ele>
        <time>2018-04-16T15:47:22Z</time>
      </trkpt>
      <trkpt lat="46.92034" lon="2.31119">
        <ele>153</ele>
        <time>2018-04-16T15:47:26Z</time>
      </trkpt>
      <trkpt lat="46.9205" lon="2.31118">
        <ele>153</ele>
        <time>2018-04-16T15:47:31Z</time>
      </trkpt>
      <trkpt lat="46.9209" lon="2.31112">
        <ele>153</ele>
        <time>2018-04-16T15:47:43Z</time>
      </trkpt>
      <trkpt lat="46.92101" lon="2.31109">
        <ele>153</ele>
        <time>2018-04-16T15:47:46Z</time>
      </trkpt>
      <trkpt lat="46.9212" lon="2.31097">
        <ele>153</ele>
        <time>2018-04-16T15:47:53Z</time>
      </trkpt>
      <trkpt lat="46.92152" lon="2.31033">
        <ele>153</ele>
        <time>2018-04-16T15:48:09Z</time>
      </trkpt>
      <trkpt lat="46.92174" lon="2.30982">
        <ele>154</ele>
        <time>2018-04-16T15:48:21Z</time>
      </trkpt>
      <trkpt lat="46.92182" lon="2.30965">
        <ele>154</ele>
        <time>2018-04-16T15:48:25Z</time>
      </trkpt>
      <trkpt lat="46.92211" lon="2.30897">
        <ele>155</ele>
        <time>2018-04-16T15:48:40Z</time>
      </trkpt>
      <trkpt lat="46.92238" lon="2.30826">
        <ele>155</ele>
        <time>2018-04-16T15:48:54Z</time>
      </trkpt>
      <trkpt lat="46.92252" lon="2.30773">
        <ele>154</ele>
        <time>2018-04-16T15:49:04Z</time>
      </trkpt>
      <trkpt lat="46.92254" lon="2.30755">
        <ele>154</ele>
        <time>2018-04-16T15:49:08Z</time>
      </trkpt>
      <trkpt lat="46.92255" lon="2.30751">
        <ele>154</ele>
        <time>2018-04-16T15:49:11Z</time>
      </trkpt>
      <trkpt lat="46.92255" lon="2.30752">
        <ele>154</ele>
        <time>2018-04-16T15:49:20Z</time>
      </trkpt>
      <trkpt lat="46.92254" lon="2.30752">
        <ele>154</ele>
        <time>2018-04-16T15:49:23Z</time>
      </trkpt>
      <trkpt lat="46.92254" lon="2.30753">
        <ele>154</ele>
        <time>2018-04-16T15:49:30Z</time>
      </trkpt>
      <trkpt lat="46.92255" lon="2.30753">
        <ele>154</ele>
        <time>2018-04-16T15:49:43Z</time>
      </trkpt>
      <trkpt lat="46.92255" lon="2.30752">
        <ele>154</ele>
        <time>2018-04-16T15:50:04Z</time>
      </trkpt>
      <trkpt lat="46.92255" lon="2.30752">
        <ele>154</ele>
        <time>2018-04-16T15:50:23Z</time>
      </trkpt>
      <trkpt lat="46.92267" lon="2.30673">
        <ele>154</ele>
        <time>2018-04-16T15:50:45Z</time>
      </trkpt>
      <trkpt lat="46.92271" lon="2.3065">
        <ele>154</ele>
        <time>2018-04-16T15:50:49Z</time>
      </trkpt>
      <trkpt lat="46.9228" lon="2.30602">
        <ele>154</ele>
        <time>2018-04-16T15:50:57Z</time>
      </trkpt>
      <trkpt lat="46.9229" lon="2.30522">
        <ele>153</ele>
        <time>2018-04-16T15:51:09Z</time>
      </trkpt>
      <trkpt lat="46.92289" lon="2.30515">
        <ele>153</ele>
        <time>2018-04-16T15:51:10Z</time>
      </trkpt>
      <trkpt lat="46.92289" lon="2.30501">
        <ele>153</ele>
        <time>2018-04-16T15:51:12Z</time>
      </trkpt>
      <trkpt lat="46.9229" lon="2.30488">
        <ele>153</ele>
        <time>2018-04-16T15:51:14Z</time>
      </trkpt>
      <trkpt lat="46.92294" lon="2.3045">
        <ele>153</ele>
        <time>2018-04-16T15:51:20Z</time>
      </trkpt>
      <trkpt lat="46.92296" lon="2.30438">
        <ele>153</ele>
        <time>2018-04-16T15:51:22Z</time>
      </trkpt>
      <trkpt lat="46.923" lon="2.30415">
        <ele>153</ele>
        <time>2018-04-16T15:51:26Z</time>
      </trkpt>
      <trkpt lat="46.92315" lon="2.30334">
        <ele>152</ele>
        <time>2018-04-16T15:51:40Z</time>
      </trkpt>
      <trkpt lat="46.92327" lon="2.3026">
        <ele>151</ele>
        <time>2018-04-16T15:51:53Z</time>
      </trkpt>
      <trkpt lat="46.92327" lon="2.30248">
        <ele>150</ele>
        <time>2018-04-16T15:51:55Z</time>
      </trkpt>
      <trkpt lat="46.92331" lon="2.30205">
        <ele>150</ele>
        <time>2018-04-16T15:52:03Z</time>
      </trkpt>
      <trkpt lat="46.92333" lon="2.30185">
        <ele>149</ele>
        <time>2018-04-16T15:52:08Z</time>
      </trkpt>
      <trkpt lat="46.92333" lon="2.30129">
        <ele>146</ele>
        <time>2018-04-16T15:52:22Z</time>
      </trkpt>
      <trkpt lat="46.92329" lon="2.30116">
        <ele>145</ele>
        <time>2018-04-16T15:52:24Z</time>
      </trkpt>
      <trkpt lat="46.92323" lon="2.30102">
        <ele>144</ele>
        <time>2018-04-16T15:52:26Z</time>
      </trkpt>
      <trkpt lat="46.92288" lon="2.30048">
        <ele>141</ele>
        <time>2018-04-16T15:52:35Z</time>
      </trkpt>
      <trkpt lat="46.92276" lon="2.3002">
        <ele>140</ele>
        <time>2018-04-16T15:52:42Z</time>
      </trkpt>
      <trkpt lat="46.9232" lon="2.30027">
        <ele>139</ele>
        <time>2018-04-16T15:52:54Z</time>
      </trkpt>
      <trkpt lat="46.92327" lon="2.30026">
        <ele>139</ele>
        <time>2018-04-16T15:52:57Z</time>
      </trkpt>
      <trkpt lat="46.9234" lon="2.29961">
        <ele>135</ele>
        <time>2018-04-16T15:53:08Z</time>
      </trkpt>
      <trkpt lat="46.92341" lon="2.29947">
        <ele>135</ele>
        <time>2018-04-16T15:53:10Z</time>
      </trkpt>
      <trkpt lat="46.92338" lon="2.29935">
        <ele>135</ele>
        <time>2018-04-16T15:53:12Z</time>
      </trkpt>
      <trkpt lat="46.92334" lon="2.29923">
        <ele>134</ele>
        <time>2018-04-16T15:53:14Z</time>
      </trkpt>
      <trkpt lat="46.92324" lon="2.29906">
        <ele>134</ele>
        <time>2018-04-16T15:53:17Z</time>
      </trkpt>
      <trkpt lat="46.92307" lon="2.29862">
        <ele>133</ele>
        <time>2018-04-16T15:53:26Z</time>
      </trkpt>
      <trkpt lat="46.92316" lon="2.29859">
        <ele>133</ele>
        <time>2018-04-16T15:54:17Z</time>
      </trkpt>
      <trkpt lat="46.92316" lon="2.2986">
        <ele>133</ele>
        <time>2018-04-16T15:54:18Z</time>
      </trkpt>
      <trkpt lat="46.92317" lon="2.29861">
        <ele>133</ele>
        <time>2018-04-16T15:54:23Z</time>
      </trkpt>
      <trkpt lat="46.92316" lon="2.2986">
        <ele>133</ele>
        <time>2018-04-16T15:54:37Z</time>
      </trkpt>
      <trkpt lat="46.92316" lon="2.29857">
        <ele>133</ele>
        <time>2018-04-16T15:54:53Z</time>
      </trkpt>
      <trkpt lat="46.92317" lon="2.29858">
        <ele>133</ele>
        <time>2018-04-16T15:55:24Z</time>
      </trkpt>
      <trkpt lat="46.92317" lon="2.29857">
        <ele>133</ele>
        <time>2018-04-16T15:55:28Z</time>
      </trkpt>
      <trkpt lat="46.92318" lon="2.29857">
        <ele>133</ele>
        <time>2018-04-16T15:55:31Z</time>
      </trkpt>
      <trkpt lat="46.92318" lon="2.29857">
        <ele>133</ele>
        <time>2018-04-16T15:55:32Z</time>
      </trkpt>
      <trkpt lat="46.92319" lon="2.29857">
        <ele>133</ele>
        <time>2018-04-16T15:55:33Z</time>
      </trkpt>
      <trkpt lat="46.9232" lon="2.29855">
        <ele>133</ele>
        <time>2018-04-16T15:55:35Z</time>
      </trkpt>
      <trkpt lat="46.92322" lon="2.29849">
        <ele>133</ele>
        <time>2018-04-16T15:55:38Z</time>
      </trkpt>
      <trkpt lat="46.92321" lon="2.29849">
        <ele>133</ele>
        <time>2018-04-16T15:55:39Z</time>
      </trkpt>
      <trkpt lat="46.92317" lon="2.2985">
        <ele>133</ele>
        <time>2018-04-16T15:55:41Z</time>
      </trkpt>
      <trkpt lat="46.92312" lon="2.29854">
        <ele>133</ele>
        <time>2018-04-16T15:55:43Z</time>
      </trkpt>
      <trkpt lat="46.92298" lon="2.29869">
        <ele>133</ele>
        <time>2018-04-16T15:55:48Z</time>
      </trkpt>
    </trkseg>
  </trk>
</gpx>